Kt Birdie — 3FUJ7 — position and weather

sailwx.info

Track history (hours):
 
Tides and Currents Weather Stations Pressure Air Temp Water Temp Dewpoint Dewpoint Depression Visibility Wind Speed Wind Dir Waves Ship Positions

Kt Birdie

Last reported at 2014-Oct-24 01:33 UTC. Time now 2014-Nov-01 04:05 UTC.
Position N 28°35' W 117°35'.
Warning: this ship's position is 8 days out of date.

Length 225 m; draft 13.8 m.

Type: Cargo ship. MMSI: 354803000.

Date/timePositionNaut miles runAvg speedWind from/ knotsBaromVisibWave heightAir tempDewpointWater temp
2014-Oct-24 01:33N 28°35' W 117°35'1612.4
2014-Oct-24 00:17N 28°48' W 117°45'3412.0
2014-Oct-23 21:29N 29°15' W 118°08'3611.3
2014-Oct-23 18:15N 29°46' W 118°30'811.3
2014-Oct-23 17:34N 29°53' W 118°35'1111.3
2014-Oct-23 16:33N 30°03' W 118°41'1111.3
2014-Oct-23 15:33N 30°13' W 118°47'1111.5
2014-Oct-23 14:34N 30°23' W 118°54'1211.6
2014-Oct-23 13:33N 30°33' W 119°00'1111.3
2014-Oct-23 12:33N 30°43' W 119°06'2411.4
2014-Oct-23 10:28N 31°03' W 119°20'1111.6
2014-Oct-23 09:33N 31°13' W 119°26'1211.8
2014-Oct-23 08:34N 31°23' W 119°33'1212.0
2014-Oct-23 07:33N 31°34' W 119°39'1211.9
2014-Oct-23 06:33N 31°44' W 119°46'1211.9
2014-Oct-23 05:33N 31°54' W 119°53'1211.7
2014-Oct-23 04:32N 32°05' W 119°60'1211.6
2014-Oct-23 03:29N 32°15' W 120°07'1111.7
2014-Oct-23 02:33N 32°25' W 120°13'1211.6
2014-Oct-23 01:33N 32°35' W 120°19'4811.6
2014-Oct-22 21:27N 33°17' W 120°47'1311.1
2014-Oct-22 20:16N 33°28' W 120°55'710.7
2014-Oct-22 19:34N 33°35' W 120°59'9111.1
2014-Oct-22 11:24N 34°54' W 121°52'911.1
2014-Oct-22 10:33N 35°02' W 121°58'1110.9
2014-Oct-22 09:33N 35°12' W 122°04'1111.1
2014-Oct-22 08:32N 35°22' W 122°11'1111.0
2014-Oct-22 07:33N 35°31' W 122°17'1111.3
2014-Oct-22 06:34N 35°41' W 122°24'1110.8
2014-Oct-22 05:34N 35°51' W 122°30'1111.1
2014-Oct-22 04:33N 36°00' W 122°37'1110.9
2014-Oct-22 03:33N 36°10' W 122°44'1110.9
2014-Oct-22 02:33N 36°20' W 122°50'1111.2
2014-Oct-22 01:33N 36°29' W 122°57'1211.8
2014-Oct-22 00:34N 36°40' W 123°04'1212.2
2014-Oct-21 23:34N 36°50' W 123°11'1111.5
2014-Oct-21 22:34N 37°00' W 123°18'1311.7
2014-Oct-21 21:28N 37°12' W 123°26'1011.5
2014-Oct-21 20:33N 37°21' W 123°33'1211.3
2014-Oct-21 19:27N 37°32' W 123°40'1011.0
2014-Oct-21 18:33N 37°40' W 123°46'1111.3
2014-Oct-21 17:33N 37°50' W 123°53'1111.0
2014-Oct-21 16:33N 37°60' W 123°60'1110.8
2014-Oct-21 15:31N 38°10' W 124°05'1110.9
2014-Oct-21 14:33N 38°20' W 124°10'1210.7
2014-Oct-21 13:27N 38°31' W 124°15'  
2014-Oct-18 22:29N 48°17' W 125°13'9 9.4
2014-Oct-18 21:33N 48°25' W 125°08'9 8.7
2014-Oct-18 20:32N 48°30' W 124°58'9 9.5
2014-Oct-18 19:33N 48°30' W 124°44'9 9.3
2014-Oct-18 18:34N 48°27' W 124°31'1010.4
2014-Oct-18 17:34N 48°23' W 124°16'1111.1
2014-Oct-18 16:34N 48°19' W 124°01'1110.8
2014-Oct-18 15:33N 48°16' W 123°45'1110.8
2014-Oct-18 14:33N 48°18' W 123°29'9 9.5
2014-Oct-18 13:34N 48°23' W 123°17'1111.4
2014-Oct-18 12:33N 48°34' W 123°13'1110.7
2014-Oct-18 11:33N 48°45' W 123°08'9 8.6
2014-Oct-18 10:33N 48°53' W 123°07'1312.5
2014-Oct-18 09:33N 49°02' W 123°21'1111.4
2014-Oct-18 08:33N 49°13' W 123°22'1010.2
2014-Oct-18 07:33N 49°19' W 123°09'3 2.9
2014-Oct-18 06:31N 49°18' W 123°05'0 0.0
2014-Oct-18 05:31N 49°18' W 123°05'0 0.1
2014-Oct-18 04:31N 49°18' W 123°05'0 0.1
2014-Oct-18 03:31N 49°18' W 123°05'0 0.0
2014-Oct-18 02:31N 49°18' W 123°05'0 0.1
2014-Oct-18 01:33N 49°18' W 123°05'1 1.5
2014-Oct-18 00:33N 49°18' W 123°07'8 7.8
2014-Oct-17 23:33N 49°16' W 123°19'1211.9
2014-Oct-17 22:33N 49°04' W 123°21'9 8.7
2014-Oct-17 21:34N 49°01' W 123°09'0 0.1
2014-Oct-17 20:30N 49°01' W 123°09'0 0.0
2014-Oct-17 19:33N 49°01' W 123°09'0 0.0
2014-Oct-17 18:33N 49°01' W 123°09'0 0.0
2014-Oct-17 17:27N 49°01' W 123°09'0 0.0
2014-Oct-17 16:33N 49°01' W 123°09'0 0.0
2014-Oct-17 15:33N 49°01' W 123°09'0 0.0
2014-Oct-17 14:33N 49°01' W 123°09'0 0.0
2014-Oct-17 13:30N 49°01' W 123°09'0 0.0
2014-Oct-17 12:30N 49°01' W 123°09'0 0.0
2014-Oct-17 11:30N 49°01' W 123°09'0 0.0
2014-Oct-17 10:33N 49°01' W 123°09'0 0.0
2014-Oct-17 09:33N 49°01' W 123°09'0 0.0
2014-Oct-17 08:33N 49°01' W 123°09'0 0.0
2014-Oct-17 07:33N 49°01' W 123°09'0 0.0
2014-Oct-17 06:33N 49°01' W 123°09'0 0.0
2014-Oct-17 05:33N 49°01' W 123°09'0 0.0
2014-Oct-17 04:33N 49°01' W 123°09'0 0.0
2014-Oct-17 03:30N 49°01' W 123°09'0 0.0
2014-Oct-17 02:33N 49°01' W 123°09'0 0.0
2014-Oct-17 01:33N 49°01' W 123°09'0 0.0
2014-Oct-17 00:33N 49°01' W 123°09'0 0.0
2014-Oct-16 23:30N 49°01' W 123°09'0 0.0
2014-Oct-16 22:33N 49°01' W 123°09'0 0.0
2014-Oct-16 21:33N 49°01' W 123°09'0 0.0
2014-Oct-16 20:33N 49°01' W 123°09'0 0.0
2014-Oct-16 19:33N 49°01' W 123°09'0 0.0
2014-Oct-16 18:33N 49°01' W 123°09'0 0.0
2014-Oct-16 17:33N 49°01' W 123°09'0 0.0
2014-Oct-16 16:30N 49°01' W 123°09'0 0.0
2014-Oct-16 15:30N 49°01' W 123°09'0 0.0
2014-Oct-16 14:33N 49°01' W 123°09'0 0.2
2014-Oct-16 13:34N 49°01' W 123°09'3 2.8
2014-Oct-16 12:33N 48°58' W 123°10'2 2.3
2014-Oct-16 11:33N 48°57' W 123°07'0 0.5
2014-Oct-16 10:33N 48°57' W 123°07'4 3.8
2014-Oct-16 09:33N 48°54' W 123°03'10 9.6
2014-Oct-16 08:33N 48°45' W 123°05'10 9.9
2014-Oct-16 07:33N 48°36' W 123°13'1212.2
2014-Oct-16 06:33N 48°24' W 123°12'7 6.6
2014-Oct-16 05:33N 48°20' W 123°21'1 0.2
2014-Oct-16 02:33N 48°21' W 123°21'0 0.1
2014-Oct-16 01:10N 48°21' W 123°21'0 0.1
2014-Oct-16 00:18N 48°21' W 123°21'0 0.1
2014-Oct-15 23:33N 48°21' W 123°21'0 0.1
2014-Oct-15 22:33N 48°21' W 123°21'0 0.0
2014-Oct-15 21:34N 48°21' W 123°21'0 0.2
2014-Oct-15 20:33N 48°21' W 123°21'0 0.1
2014-Oct-15 19:33N 48°21' W 123°20'0 0.0
2014-Oct-15 18:33N 48°21' W 123°21'0 0.1
2014-Oct-15 17:33N 48°21' W 123°20'0 0.0
2014-Oct-15 16:34N 48°21' W 123°20'0 0.0
2014-Oct-15 15:34N 48°21' W 123°20'0 0.0
2014-Oct-15 14:33N 48°21' W 123°20'0 0.1
2014-Oct-15 13:33N 48°21' W 123°21'3 3.3
2014-Oct-15 12:33N 48°19' W 123°25'8 7.8
2014-Oct-15 11:33N 48°13' W 123°33'1010.0
2014-Oct-15 10:32N 48°13' W 123°48'1212.5
2014-Oct-15 09:33N 48°17' W 124°06'1212.4
2014-Oct-15 08:33N 48°22' W 124°23'1312.6
2014-Oct-15 07:33N 48°27' W 124°40'1111.4
2014-Oct-15 06:33N 48°28' W 124°57'1111.1
2014-Oct-15 05:34N 48°28' W 125°14'1212.2
2014-Oct-15 04:33N 48°29' W 125°32'1211.9
2014-Oct-15 03:33N 48°32' W 125°50'1111.6
2014-Oct-15 02:33N 48°37' W 126°05'1111.2
2014-Oct-15 01:34N 48°42' W 126°21'1312.5
2014-Oct-15 00:33N 48°47' W 126°38'1111.2
2014-Oct-14 23:33N 48°52' W 126°53'  
Track history (hours):
 
Tides and Currents Weather Stations Pressure Air Temp Water Temp Dewpoint Dewpoint Depression Visibility Wind Speed Wind Dir Waves Ship Positions

Kt Birdie

Last reported at 2014-Oct-24 01:33 UTC. Time now 2014-Nov-01 04:05 UTC.
Position N 28°35' W 117°35'.
Warning: this ship's position is 8 days out of date.

Length 225 m; draft 13.8 m.

Type: Cargo ship. MMSI: 354803000.

Date/timePositionNaut miles runAvg speedWind from/ knotsBaromVisibWave heightAir tempDewpointWater temp
2014-Oct-24 01:33N 28°35' W 117°35'1612.4
2014-Oct-24 00:17N 28°48' W 117°45'3412.0
2014-Oct-23 21:29N 29°15' W 118°08'3611.3
2014-Oct-23 18:15N 29°46' W 118°30'811.3
2014-Oct-23 17:34N 29°53' W 118°35'1111.3
2014-Oct-23 16:33N 30°03' W 118°41'1111.3
2014-Oct-23 15:33N 30°13' W 118°47'1111.5
2014-Oct-23 14:34N 30°23' W 118°54'1211.6
2014-Oct-23 13:33N 30°33' W 119°00'1111.3
2014-Oct-23 12:33N 30°43' W 119°06'2411.4
2014-Oct-23 10:28N 31°03' W 119°20'1111.6
2014-Oct-23 09:33N 31°13' W 119°26'1211.8
2014-Oct-23 08:34N 31°23' W 119°33'1212.0
2014-Oct-23 07:33N 31°34' W 119°39'1211.9
2014-Oct-23 06:33N 31°44' W 119°46'1211.9
2014-Oct-23 05:33N 31°54' W 119°53'1211.7
2014-Oct-23 04:32N 32°05' W 119°60'1211.6
2014-Oct-23 03:29N 32°15' W 120°07'1111.7
2014-Oct-23 02:33N 32°25' W 120°13'1211.6
2014-Oct-23 01:33N 32°35' W 120°19'4811.6
2014-Oct-22 21:27N 33°17' W 120°47'1311.1
2014-Oct-22 20:16N 33°28' W 120°55'710.7
2014-Oct-22 19:34N 33°35' W 120°59'9111.1
2014-Oct-22 11:24N 34°54' W 121°52'911.1
2014-Oct-22 10:33N 35°02' W 121°58'1110.9
2014-Oct-22 09:33N 35°12' W 122°04'1111.1
2014-Oct-22 08:32N 35°22' W 122°11'1111.0
2014-Oct-22 07:33N 35°31' W 122°17'1111.3
2014-Oct-22 06:34N 35°41' W 122°24'1110.8
2014-Oct-22 05:34N 35°51' W 122°30'1111.1
2014-Oct-22 04:33N 36°00' W 122°37'1110.9
2014-Oct-22 03:33N 36°10' W 122°44'1110.9
2014-Oct-22 02:33N 36°20' W 122°50'1111.2
2014-Oct-22 01:33N 36°29' W 122°57'1211.8
2014-Oct-22 00:34N 36°40' W 123°04'1212.2
2014-Oct-21 23:34N 36°50' W 123°11'1111.5
2014-Oct-21 22:34N 37°00' W 123°18'1311.7
2014-Oct-21 21:28N 37°12' W 123°26'1011.5
2014-Oct-21 20:33N 37°21' W 123°33'1211.3
2014-Oct-21 19:27N 37°32' W 123°40'1011.0
2014-Oct-21 18:33N 37°40' W 123°46'1111.3
2014-Oct-21 17:33N 37°50' W 123°53'1111.0
2014-Oct-21 16:33N 37°60' W 123°60'1110.8
2014-Oct-21 15:31N 38°10' W 124°05'1110.9
2014-Oct-21 14:33N 38°20' W 124°10'1210.7
2014-Oct-21 13:27N 38°31' W 124°15'  
2014-Oct-18 22:29N 48°17' W 125°13'9 9.4
2014-Oct-18 21:33N 48°25' W 125°08'9 8.7
2014-Oct-18 20:32N 48°30' W 124°58'9 9.5
2014-Oct-18 19:33N 48°30' W 124°44'9 9.3
2014-Oct-18 18:34N 48°27' W 124°31'1010.4
2014-Oct-18 17:34N 48°23' W 124°16'1111.1
2014-Oct-18 16:34N 48°19' W 124°01'1110.8
2014-Oct-18 15:33N 48°16' W 123°45'1110.8
2014-Oct-18 14:33N 48°18' W 123°29'9 9.5
2014-Oct-18 13:34N 48°23' W 123°17'1111.4
2014-Oct-18 12:33N 48°34' W 123°13'1110.7
2014-Oct-18 11:33N 48°45' W 123°08'9 8.6
2014-Oct-18 10:33N 48°53' W 123°07'1312.5
2014-Oct-18 09:33N 49°02' W 123°21'1111.4
2014-Oct-18 08:33N 49°13' W 123°22'1010.2
2014-Oct-18 07:33N 49°19' W 123°09'3 2.9
2014-Oct-18 06:31N 49°18' W 123°05'0 0.0
2014-Oct-18 05:31N 49°18' W 123°05'0 0.1
2014-Oct-18 04:31N 49°18' W 123°05'0 0.1
2014-Oct-18 03:31N 49°18' W 123°05'0 0.0
2014-Oct-18 02:31N 49°18' W 123°05'0 0.1
2014-Oct-18 01:33N 49°18' W 123°05'1 1.5
2014-Oct-18 00:33N 49°18' W 123°07'8 7.8
2014-Oct-17 23:33N 49°16' W 123°19'1211.9
2014-Oct-17 22:33N 49°04' W 123°21'9 8.7
2014-Oct-17 21:34N 49°01' W 123°09'0 0.1
2014-Oct-17 20:30N 49°01' W 123°09'0 0.0
2014-Oct-17 19:33N 49°01' W 123°09'0 0.0
2014-Oct-17 18:33N 49°01' W 123°09'0 0.0
2014-Oct-17 17:27N 49°01' W 123°09'0 0.0
2014-Oct-17 16:33N 49°01' W 123°09'0 0.0
2014-Oct-17 15:33N 49°01' W 123°09'0 0.0
2014-Oct-17 14:33N 49°01' W 123°09'0 0.0
2014-Oct-17 13:30N 49°01' W 123°09'0 0.0
2014-Oct-17 12:30N 49°01' W 123°09'0 0.0
2014-Oct-17 11:30N 49°01' W 123°09'0 0.0
2014-Oct-17 10:33N 49°01' W 123°09'0 0.0
2014-Oct-17 09:33N 49°01' W 123°09'0 0.0
2014-Oct-17 08:33N 49°01' W 123°09'0 0.0
2014-Oct-17 07:33N 49°01' W 123°09'0 0.0
2014-Oct-17 06:33N 49°01' W 123°09'0 0.0
2014-Oct-17 05:33N 49°01' W 123°09'0 0.0
2014-Oct-17 04:33N 49°01' W 123°09'0 0.0
2014-Oct-17 03:30N 49°01' W 123°09'0 0.0
2014-Oct-17 02:33N 49°01' W 123°09'0 0.0
2014-Oct-17 01:33N 49°01' W 123°09'0 0.0
2014-Oct-17 00:33N 49°01' W 123°09'0 0.0
2014-Oct-16 23:30N 49°01' W 123°09'0 0.0
2014-Oct-16 22:33N 49°01' W 123°09'0 0.0
2014-Oct-16 21:33N 49°01' W 123°09'0 0.0
2014-Oct-16 20:33N 49°01' W 123°09'0 0.0
2014-Oct-16 19:33N 49°01' W 123°09'0 0.0
2014-Oct-16 18:33N 49°01' W 123°09'0 0.0
2014-Oct-16 17:33N 49°01' W 123°09'0 0.0
2014-Oct-16 16:30N 49°01' W 123°09'0 0.0
2014-Oct-16 15:30N 49°01' W 123°09'0 0.0
2014-Oct-16 14:33N 49°01' W 123°09'0 0.2
2014-Oct-16 13:34N 49°01' W 123°09'3 2.8
2014-Oct-16 12:33N 48°58' W 123°10'2 2.3
2014-Oct-16 11:33N 48°57' W 123°07'0 0.5
2014-Oct-16 10:33N 48°57' W 123°07'4 3.8
2014-Oct-16 09:33N 48°54' W 123°03'10 9.6
2014-Oct-16 08:33N 48°45' W 123°05'10 9.9
2014-Oct-16 07:33N 48°36' W 123°13'1212.2
2014-Oct-16 06:33N 48°24' W 123°12'7 6.6
2014-Oct-16 05:33N 48°20' W 123°21'1 0.2
2014-Oct-16 02:33N 48°21' W 123°21'0 0.1
2014-Oct-16 01:10N 48°21' W 123°21'0 0.1
2014-Oct-16 00:18N 48°21' W 123°21'0 0.1
2014-Oct-15 23:33N 48°21' W 123°21'0 0.1
2014-Oct-15 22:33N 48°21' W 123°21'0 0.0
2014-Oct-15 21:34N 48°21' W 123°21'0 0.2
2014-Oct-15 20:33N 48°21' W 123°21'0 0.1
2014-Oct-15 19:33N 48°21' W 123°20'0 0.0
2014-Oct-15 18:33N 48°21' W 123°21'0 0.1
2014-Oct-15 17:33N 48°21' W 123°20'0 0.0
2014-Oct-15 16:34N 48°21' W 123°20'0 0.0
2014-Oct-15 15:34N 48°21' W 123°20'0 0.0
2014-Oct-15 14:33N 48°21' W 123°20'0 0.1
2014-Oct-15 13:33N 48°21' W 123°21'3 3.3
2014-Oct-15 12:33N 48°19' W 123°25'8 7.8
2014-Oct-15 11:33N 48°13' W 123°33'1010.0
2014-Oct-15 10:32N 48°13' W 123°48'1212.5
2014-Oct-15 09:33N 48°17' W 124°06'1212.4
2014-Oct-15 08:33N 48°22' W 124°23'1312.6
2014-Oct-15 07:33N 48°27' W 124°40'1111.4
2014-Oct-15 06:33N 48°28' W 124°57'1111.1
2014-Oct-15 05:34N 48°28' W 125°14'1212.2
2014-Oct-15 04:33N 48°29' W 125°32'1211.9
2014-Oct-15 03:33N 48°32' W 125°50'1111.6
2014-Oct-15 02:33N 48°37' W 126°05'1111.2
2014-Oct-15 01:34N 48°42' W 126°21'1312.5
2014-Oct-15 00:33N 48°47' W 126°38'1111.2
2014-Oct-14 23:33N 48°52' W 126°53'  

Dump ship's entire track history